Terminal Aerodrome Forecast
Issued by NWS

Home | Current Version | Previous Version | Text Only | Print | Product List | Glossary On
Versions: 1 2 3 4 5 6 7 8 9 10 11 12 13 14 15 16
000
FTUS41 KAKQ 281100
TAFPHF
TAF
KPHF 281120Z 2812/2912 35011G18KT P6SM SKC
     FM281300 35014G21KT P6SM SKC
     FM282200 35006KT P6SM SKC
     FM291000 01003KT P6SM SCT250=

USA.gov is the U.S. government's official web portal to all federal, state and local government web resources and services.